Algona, Washington
Current Conditions -  °F | °C
As of 5:53 AM on Friday 19 Dec 2014 (Local Time) from KSEA Reporting Station
Overcast Overcast  
Wind Chill: 44°   Ceiling: 4600
Heat Index: 47°   Visibility: 10mi
Dew Point: 42°   Wind: 7mph
Humidity: 83%   Direction: 170°S
Pressure: 29.85"   Gusts: NA
Location:  47.31°N, 122.266°W
Report Text: KSEA 191353Z 17006KT 10SM BKN046 OVC055 08/06 A2985 RMK AO2 SLP116 T00830056
Loading
Personal Weather Stations






























Interactive Weather Map New forecast layout! Learn more

10-Day Weather Forecast

Advertisements
Track Severe Weather on mobile